sensor_id;sensor_type;location;lat;lon;timestamp;temperature;humidity
13328;DHT22;6733;51.044;3.746;2022-10-28T00:00:22;17.30;99.90
13328;DHT22;6733;51.044;3.746;2022-10-28T00:02:48;17.20;99.90
13328;DHT22;6733;51.044;3.746;2022-10-28T00:05:15;17.20;99.90
13328;DHT22;6733;51.044;3.746;2022-10-28T00:07:41;17.30;99.90
13328;DHT22;6733;51.044;3.746;2022-10-28T00:10:07;17.30;99.90
13328;DHT22;6733;51.044;3.746;2022-10-28T00:12:35;17.30;99.90
13328;DHT22;6733;51.044;3.746;2022-10-28T00:15:02;17.30;99.90
13328;DHT22;6733;51.044;3.746;2022-10-28T00:17:28;17.30;99.90
13328;DHT22;6733;51.044;3.746;2022-10-28T00:19:54;17.30;99.90
13328;DHT22;6733;51.044;3.746;2022-10-28T00:22:21;17.30;99.90
13328;DHT22;6733;51.044;3.746;2022-10-28T00:24:47;17.30;99.90
13328;DHT22;6733;51.044;3.746;2022-10-28T00:27:13;17.30;99.90
13328;DHT22;6733;51.044;3.746;2022-10-28T00:29:39;17.30;99.90
13328;DHT22;6733;51.044;3.746;2022-10-28T00:32:05;17.30;99.90
13328;DHT22;6733;51.044;3.746;2022-10-28T00:34:31;17.30;99.90
13328;DHT22;6733;51.044;3.746;2022-10-28T00:36:58;17.30;99.90
13328;DHT22;6733;51.044;3.746;2022-10-28T00:39:24;17.30;99.90
13328;DHT22;6733;51.044;3.746;2022-10-28T00:41:53;17.30;99.90
13328;DHT22;6733;51.044;3.746;2022-10-28T00:47:26;17.30;99.90
13328;DHT22;6733;51.044;3.746;2022-10-28T00:49:59;17.30;99.90
13328;DHT22;6733;51.044;3.746;2022-10-28T00:52:28;17.30;99.90
13328;DHT22;6733;51.044;3.746;2022-10-28T00:54:56;17.30;99.90
13328;DHT22;6733;51.044;3.746;2022-10-28T00:57:29;17.30;99.90
13328;DHT22;6733;51.044;3.746;2022-10-28T00:59:57;17.30;99.90
13328;DHT22;6733;51.044;3.746;2022-10-28T01:02:24;17.30;99.90
13328;DHT22;6733;51.044;3.746;2022-10-28T01:04:51;17.30;99.90
13328;DHT22;6733;51.044;3.746;2022-10-28T01:07:17;17.30;99.90
13328;DHT22;6733;51.044;3.746;2022-10-28T01:09:44;17.30;99.90
13328;DHT22;6733;51.044;3.746;2022-10-28T01:12:30;17.30;99.90
13328;DHT22;6733;51.044;3.746;2022-10-28T01:17:52;17.30;99.90
13328;DHT22;6733;51.044;3.746;2022-10-28T01:20:51;17.30;99.90
13328;DHT22;6733;51.044;3.746;2022-10-28T01:28:41;17.30;99.90
13328;DHT22;6733;51.044;3.746;2022-10-28T01:34:26;17.30;99.90
13328;DHT22;6733;51.044;3.746;2022-10-28T01:39:52;17.30;99.90
13328;DHT22;6733;51.044;3.746;2022-10-28T01:50:13;17.30;99.90
13328;DHT22;6733;51.044;3.746;2022-10-28T01:52:41;17.30;99.90
13328;DHT22;6733;51.044;3.746;2022-10-28T01:55:19;17.30;99.90
13328;DHT22;6733;51.044;3.746;2022-10-28T01:57:48;17.30;99.90
13328;DHT22;6733;51.044;3.746;2022-10-28T02:00:16;17.30;99.90
13328;DHT22;6733;51.044;3.746;2022-10-28T02:02:42;17.30;99.90
13328;DHT22;6733;51.044;3.746;2022-10-28T02:08:00;17.40;99.90
13328;DHT22;6733;51.044;3.746;2022-10-28T02:10:34;17.40;99.90
13328;DHT22;6733;51.044;3.746;2022-10-28T02:13:05;17.40;99.90
13328;DHT22;6733;51.044;3.746;2022-10-28T02:15:45;17.40;99.90
13328;DHT22;6733;51.044;3.746;2022-10-28T02:18:25;17.40;99.90
13328;DHT22;6733;51.044;3.746;2022-10-28T02:21:00;17.40;99.90
13328;DHT22;6733;51.044;3.746;2022-10-28T02:23:32;17.40;99.90
13328;DHT22;6733;51.044;3.746;2022-10-28T02:26:12;17.40;99.90
13328;DHT22;6733;51.044;3.746;2022-10-28T02:45:12;17.30;99.90
13328;DHT22;6733;51.044;3.746;2022-10-28T02:47:44;17.30;99.90
13328;DHT22;6733;51.044;3.746;2022-10-28T02:50:15;17.30;99.90
13328;DHT22;6733;51.044;3.746;2022-10-28T02:52:45;17.30;99.90
13328;DHT22;6733;51.044;3.746;2022-10-28T02:55:13;17.20;99.90
13328;DHT22;6733;51.044;3.746;2022-10-28T02:57:42;17.20;99.90
13328;DHT22;6733;51.044;3.746;2022-10-28T03:00:21;17.20;99.90
13328;DHT22;6733;51.044;3.746;2022-10-28T03:02:49;17.20;99.90
13328;DHT22;6733;51.044;3.746;2022-10-28T03:05:16;17.20;99.90
13328;DHT22;6733;51.044;3.746;2022-10-28T03:07:42;17.20;99.90
13328;DHT22;6733;51.044;3.746;2022-10-28T03:10:09;17.20;99.90
13328;DHT22;6733;51.044;3.746;2022-10-28T03:12:35;17.20;99.90
13328;DHT22;6733;51.044;3.746;2022-10-28T03:15:01;17.20;99.90
13328;DHT22;6733;51.044;3.746;2022-10-28T03:17:28;17.10;99.90
13328;DHT22;6733;51.044;3.746;2022-10-28T03:19:54;17.10;99.90
13328;DHT22;6733;51.044;3.746;2022-10-28T03:22:20;17.10;99.90
13328;DHT22;6733;51.044;3.746;2022-10-28T03:24:46;17.10;99.90
13328;DHT22;6733;51.044;3.746;2022-10-28T03:27:13;17.00;99.90
13328;DHT22;6733;51.044;3.746;2022-10-28T03:29:39;17.10;99.90
13328;DHT22;6733;51.044;3.746;2022-10-28T03:32:05;17.10;99.90
13328;DHT22;6733;51.044;3.746;2022-10-28T03:34:31;17.10;99.90
13328;DHT22;6733;51.044;3.746;2022-10-28T03:36:57;17.00;99.90
13328;DHT22;6733;51.044;3.746;2022-10-28T03:39:23;17.00;99.90
13328;DHT22;6733;51.044;3.746;2022-10-28T03:41:49;17.00;99.90
13328;DHT22;6733;51.044;3.746;2022-10-28T03:44:15;17.00;99.90
13328;DHT22;6733;51.044;3.746;2022-10-28T03:46:41;16.90;99.90
13328;DHT22;6733;51.044;3.746;2022-10-28T03:49:07;16.90;99.90
13328;DHT22;6733;51.044;3.746;2022-10-28T03:51:34;16.80;99.90
13328;DHT22;6733;51.044;3.746;2022-10-28T03:54:00;16.80;99.90
13328;DHT22;6733;51.044;3.746;2022-10-28T03:56:26;16.80;99.90
13328;DHT22;6733;51.044;3.746;2022-10-28T03:58:52;16.70;99.90
13328;DHT22;6733;51.044;3.746;2022-10-28T04:01:18;16.70;99.90
13328;DHT22;6733;51.044;3.746;2022-10-28T04:03:44;16.70;99.90
13328;DHT22;6733;51.044;3.746;2022-10-28T04:06:10;16.70;99.90
13328;DHT22;6733;51.044;3.746;2022-10-28T04:08:37;16.70;99.90
13328;DHT22;6733;51.044;3.746;2022-10-28T04:11:03;16.70;99.90
13328;DHT22;6733;51.044;3.746;2022-10-28T04:13:29;16.60;99.90
13328;DHT22;6733;51.044;3.746;2022-10-28T04:15:56;16.60;99.90
13328;DHT22;6733;51.044;3.746;2022-10-28T04:18:22;16.60;99.90
13328;DHT22;6733;51.044;3.746;2022-10-28T04:20:48;16.50;99.90
13328;DHT22;6733;51.044;3.746;2022-10-28T04:23:16;16.50;99.90
13328;DHT22;6733;51.044;3.746;2022-10-28T04:25:45;16.50;99.90
13328;DHT22;6733;51.044;3.746;2022-10-28T04:28:12;16.50;99.90
13328;DHT22;6733;51.044;3.746;2022-10-28T04:30:38;16.50;99.90
13328;DHT22;6733;51.044;3.746;2022-10-28T04:33:04;16.50;99.90
13328;DHT22;6733;51.044;3.746;2022-10-28T04:35:30;16.50;99.90
13328;DHT22;6733;51.044;3.746;2022-10-28T04:37:56;16.50;99.90
13328;DHT22;6733;51.044;3.746;2022-10-28T04:40:22;16.40;99.90
13328;DHT22;6733;51.044;3.746;2022-10-28T04:42:49;16.50;99.90
13328;DHT22;6733;51.044;3.746;2022-10-28T04:45:15;16.40;99.90
13328;DHT22;6733;51.044;3.746;2022-10-28T04:47:41;16.40;99.90
13328;DHT22;6733;51.044;3.746;2022-10-28T04:50:07;16.40;99.90
13328;DHT22;6733;51.044;3.746;2022-10-28T04:52:33;16.40;99.90
13328;DHT22;6733;51.044;3.746;2022-10-28T04:54:59;16.40;99.90
13328;DHT22;6733;51.044;3.746;2022-10-28T04:57:26;16.40;99.90
13328;DHT22;6733;51.044;3.746;2022-10-28T04:59:52;16.40;99.90
13328;DHT22;6733;51.044;3.746;2022-10-28T05:02:18;16.40;99.90
13328;DHT22;6733;51.044;3.746;2022-10-28T05:04:46;16.30;99.90
13328;DHT22;6733;51.044;3.746;2022-10-28T05:07:13;16.40;99.90
13328;DHT22;6733;51.044;3.746;2022-10-28T05:09:40;16.30;99.90
13328;DHT22;6733;51.044;3.746;2022-10-28T05:12:06;16.30;99.90
13328;DHT22;6733;51.044;3.746;2022-10-28T05:14:32;16.30;99.90
13328;DHT22;6733;51.044;3.746;2022-10-28T05:16:58;16.30;99.90
13328;DHT22;6733;51.044;3.746;2022-10-28T05:19:24;16.30;99.90
13328;DHT22;6733;51.044;3.746;2022-10-28T05:21:50;16.30;99.90
13328;DHT22;6733;51.044;3.746;2022-10-28T05:24:16;16.30;99.90
13328;DHT22;6733;51.044;3.746;2022-10-28T05:26:42;16.30;99.90
13328;DHT22;6733;51.044;3.746;2022-10-28T05:29:08;16.30;99.90
13328;DHT22;6733;51.044;3.746;2022-10-28T05:31:34;16.30;99.90
13328;DHT22;6733;51.044;3.746;2022-10-28T05:34:00;16.30;99.90
13328;DHT22;6733;51.044;3.746;2022-10-28T05:36:27;16.30;99.90
13328;DHT22;6733;51.044;3.746;2022-10-28T05:38:54;16.20;99.90
13328;DHT22;6733;51.044;3.746;2022-10-28T05:41:20;16.20;99.90
13328;DHT22;6733;51.044;3.746;2022-10-28T05:43:46;16.20;99.90
13328;DHT22;6733;51.044;3.746;2022-10-28T05:46:12;16.20;99.90
13328;DHT22;6733;51.044;3.746;2022-10-28T05:48:38;16.20;99.90
13328;DHT22;6733;51.044;3.746;2022-10-28T05:51:04;16.20;99.90
13328;DHT22;6733;51.044;3.746;2022-10-28T05:53:30;16.20;99.90
13328;DHT22;6733;51.044;3.746;2022-10-28T05:55:57;16.20;99.90
13328;DHT22;6733;51.044;3.746;2022-10-28T05:58:23;16.20;99.90
13328;DHT22;6733;51.044;3.746;2022-10-28T06:00:49;16.20;99.90
13328;DHT22;6733;51.044;3.746;2022-10-28T06:03:15;16.20;99.90
13328;DHT22;6733;51.044;3.746;2022-10-28T06:05:43;16.20;99.90
13328;DHT22;6733;51.044;3.746;2022-10-28T06:08:10;16.20;99.90
13328;DHT22;6733;51.044;3.746;2022-10-28T06:10:37;16.20;99.90
13328;DHT22;6733;51.044;3.746;2022-10-28T06:13:03;16.20;99.90
13328;DHT22;6733;51.044;3.746;2022-10-28T06:15:30;16.20;99.90
13328;DHT22;6733;51.044;3.746;2022-10-28T06:17:57;16.20;99.90
13328;DHT22;6733;51.044;3.746;2022-10-28T06:20:23;16.20;99.90
13328;DHT22;6733;51.044;3.746;2022-10-28T06:22:53;16.20;99.90
13328;DHT22;6733;51.044;3.746;2022-10-28T06:25:21;16.20;99.90
13328;DHT22;6733;51.044;3.746;2022-10-28T06:27:58;16.20;99.90
13328;DHT22;6733;51.044;3.746;2022-10-28T06:30:25;16.20;99.90
13328;DHT22;6733;51.044;3.746;2022-10-28T06:32:54;16.30;99.90
13328;DHT22;6733;51.044;3.746;2022-10-28T06:35:21;16.30;99.90
13328;DHT22;6733;51.044;3.746;2022-10-28T06:37:47;16.30;99.90
13328;DHT22;6733;51.044;3.746;2022-10-28T06:40:13;16.30;99.90
13328;DHT22;6733;51.044;3.746;2022-10-28T06:42:39;16.30;99.90
13328;DHT22;6733;51.044;3.746;2022-10-28T06:45:06;16.30;99.90
13328;DHT22;6733;51.044;3.746;2022-10-28T06:47:32;16.40;99.90
13328;DHT22;6733;51.044;3.746;2022-10-28T06:49:58;16.40;99.90
13328;DHT22;6733;51.044;3.746;2022-10-28T06:52:24;16.40;99.90
13328;DHT22;6733;51.044;3.746;2022-10-28T06:54:50;16.40;99.90
13328;DHT22;6733;51.044;3.746;2022-10-28T06:57:17;16.40;99.90
13328;DHT22;6733;51.044;3.746;2022-10-28T06:59:43;16.40;99.90
13328;DHT22;6733;51.044;3.746;2022-10-28T07:02:12;16.40;99.90
13328;DHT22;6733;51.044;3.746;2022-10-28T07:04:38;16.70;99.90
13328;DHT22;6733;51.044;3.746;2022-10-28T07:07:04;16.80;99.90
13328;DHT22;6733;51.044;3.746;2022-10-28T07:09:30;16.80;99.90
13328;DHT22;6733;51.044;3.746;2022-10-28T07:11:58;16.80;99.90
13328;DHT22;6733;51.044;3.746;2022-10-28T07:14:24;16.90;99.90
13328;DHT22;6733;51.044;3.746;2022-10-28T07:16:50;16.90;99.90
13328;DHT22;6733;51.044;3.746;2022-10-28T07:19:16;16.90;99.90
13328;DHT22;6733;51.044;3.746;2022-10-28T07:21:42;17.00;99.90
13328;DHT22;6733;51.044;3.746;2022-10-28T07:24:09;17.10;99.90
13328;DHT22;6733;51.044;3.746;2022-10-28T07:26:35;17.10;99.90
13328;DHT22;6733;51.044;3.746;2022-10-28T07:29:01;17.20;99.90
13328;DHT22;6733;51.044;3.746;2022-10-28T07:31:27;17.30;99.90
13328;DHT22;6733;51.044;3.746;2022-10-28T07:33:54;17.40;99.90
13328;DHT22;6733;51.044;3.746;2022-10-28T07:36:21;17.40;99.90
13328;DHT22;6733;51.044;3.746;2022-10-28T07:38:51;17.40;99.90
13328;DHT22;6733;51.044;3.746;2022-10-28T07:41:19;17.50;99.90
13328;DHT22;6733;51.044;3.746;2022-10-28T07:43:47;17.60;99.90
13328;DHT22;6733;51.044;3.746;2022-10-28T07:46:13;17.70;99.90
13328;DHT22;6733;51.044;3.746;2022-10-28T07:48:39;17.70;99.90
13328;DHT22;6733;51.044;3.746;2022-10-28T07:51:07;17.70;99.90
13328;DHT22;6733;51.044;3.746;2022-10-28T07:53:35;17.80;99.90
13328;DHT22;6733;51.044;3.746;2022-10-28T07:56:03;17.80;99.90
13328;DHT22;6733;51.044;3.746;2022-10-28T07:58:31;17.90;99.90
13328;DHT22;6733;51.044;3.746;2022-10-28T08:01:02;17.90;99.90
13328;DHT22;6733;51.044;3.746;2022-10-28T08:03:29;17.90;99.90
13328;DHT22;6733;51.044;3.746;2022-10-28T08:05:59;17.90;99.90
13328;DHT22;6733;51.044;3.746;2022-10-28T08:08:26;17.90;99.90
13328;DHT22;6733;51.044;3.746;2022-10-28T08:10:52;17.90;99.90
13328;DHT22;6733;51.044;3.746;2022-10-28T08:13:18;18.00;99.90
13328;DHT22;6733;51.044;3.746;2022-10-28T08:15:53;17.90;99.90
13328;DHT22;6733;51.044;3.746;2022-10-28T08:18:21;17.90;99.90
13328;DHT22;6733;51.044;3.746;2022-10-28T08:20:47;18.00;99.90
13328;DHT22;6733;51.044;3.746;2022-10-28T08:23:14;18.00;99.90
13328;DHT22;6733;51.044;3.746;2022-10-28T08:25:50;18.00;99.90
13328;DHT22;6733;51.044;3.746;2022-10-28T08:28:17;18.00;99.90
13328;DHT22;6733;51.044;3.746;2022-10-28T08:30:44;18.10;99.90
13328;DHT22;6733;51.044;3.746;2022-10-28T08:33:11;18.30;99.90
13328;DHT22;6733;51.044;3.746;2022-10-28T08:35:38;18.30;99.90
13328;DHT22;6733;51.044;3.746;2022-10-28T08:38:04;18.30;99.90
13328;DHT22;6733;51.044;3.746;2022-10-28T08:45:52;18.70;99.90
13328;DHT22;6733;51.044;3.746;2022-10-28T08:50:56;19.10;99.90
13328;DHT22;6733;51.044;3.746;2022-10-28T08:53:52;19.20;99.90
13328;DHT22;6733;51.044;3.746;2022-10-28T09:31:44;21.10;99.90
13328;DHT22;6733;51.044;3.746;2022-10-28T09:37:20;21.30;99.90
13328;DHT22;6733;51.044;3.746;2022-10-28T09:39:50;21.30;99.90
13328;DHT22;6733;51.044;3.746;2022-10-28T09:42:36;21.40;99.90
13328;DHT22;6733;51.044;3.746;2022-10-28T09:45:05;21.40;99.90
13328;DHT22;6733;51.044;3.746;2022-10-28T09:47:40;21.50;99.90
13328;DHT22;6733;51.044;3.746;2022-10-28T09:50:28;21.50;99.90
13328;DHT22;6733;51.044;3.746;2022-10-28T09:55:49;21.50;99.90
13328;DHT22;6733;51.044;3.746;2022-10-28T09:58:16;21.40;99.90
13328;DHT22;6733;51.044;3.746;2022-10-28T10:00:44;21.30;99.90
13328;DHT22;6733;51.044;3.746;2022-10-28T10:03:10;21.30;99.90
13328;DHT22;6733;51.044;3.746;2022-10-28T10:05:41;21.30;99.90
13328;DHT22;6733;51.044;3.746;2022-10-28T10:08:13;21.20;99.90
13328;DHT22;6733;51.044;3.746;2022-10-28T10:11:10;21.20;99.90
13328;DHT22;6733;51.044;3.746;2022-10-28T10:13:40;21.20;99.90
13328;DHT22;6733;51.044;3.746;2022-10-28T10:16:16;21.10;99.90
13328;DHT22;6733;51.044;3.746;2022-10-28T10:18:48;21.20;99.90
13328;DHT22;6733;51.044;3.746;2022-10-28T10:21:15;21.30;99.90
13328;DHT22;6733;51.044;3.746;2022-10-28T10:23:44;21.40;99.90
13328;DHT22;6733;51.044;3.746;2022-10-28T10:26:12;21.50;99.90
13328;DHT22;6733;51.044;3.746;2022-10-28T10:28:43;21.50;99.90
13328;DHT22;6733;51.044;3.746;2022-10-28T10:31:25;21.40;99.90
13328;DHT22;6733;51.044;3.746;2022-10-28T10:33:54;21.30;99.90
13328;DHT22;6733;51.044;3.746;2022-10-28T10:36:23;21.40;99.90
13328;DHT22;6733;51.044;3.746;2022-10-28T10:38:58;21.40;99.90
13328;DHT22;6733;51.044;3.746;2022-10-28T10:41:41;21.40;99.90
13328;DHT22;6733;51.044;3.746;2022-10-28T10:49:26;21.50;99.90
13328;DHT22;6733;51.044;3.746;2022-10-28T10:51:55;21.40;99.90
13328;DHT22;6733;51.044;3.746;2022-10-28T10:54:27;21.50;99.90
13328;DHT22;6733;51.044;3.746;2022-10-28T10:57:04;21.70;99.90
13328;DHT22;6733;51.044;3.746;2022-10-28T10:59:31;21.70;99.90
13328;DHT22;6733;51.044;3.746;2022-10-28T11:01:59;21.50;99.90
13328;DHT22;6733;51.044;3.746;2022-10-28T11:04:26;21.50;99.90
13328;DHT22;6733;51.044;3.746;2022-10-28T11:06:55;21.60;99.90
13328;DHT22;6733;51.044;3.746;2022-10-28T11:09:34;21.70;99.90
13328;DHT22;6733;51.044;3.746;2022-10-28T11:12:26;21.70;99.90
13328;DHT22;6733;51.044;3.746;2022-10-28T11:17:24;21.70;99.90
13328;DHT22;6733;51.044;3.746;2022-10-28T11:19:53;21.70;99.90
13328;DHT22;6733;51.044;3.746;2022-10-28T11:22:46;21.80;99.90
13328;DHT22;6733;51.044;3.746;2022-10-28T11:25:25;21.80;99.90
13328;DHT22;6733;51.044;3.746;2022-10-28T11:28:30;21.80;99.90
13328;DHT22;6733;51.044;3.746;2022-10-28T11:31:18;21.70;99.90
13328;DHT22;6733;51.044;3.746;2022-10-28T11:37:21;21.60;99.90
13328;DHT22;6733;51.044;3.746;2022-10-28T11:42:37;21.60;99.90
13328;DHT22;6733;51.044;3.746;2022-10-28T11:53:32;21.70;99.90
13328;DHT22;6733;51.044;3.746;2022-10-28T11:56:38;21.70;99.90
13328;DHT22;6733;51.044;3.746;2022-10-28T12:05:02;21.90;99.90
13328;DHT22;6733;51.044;3.746;2022-10-28T12:18:46;22.10;99.90
13328;DHT22;6733;51.044;3.746;2022-10-28T12:21:32;22.20;99.90
13328;DHT22;6733;51.044;3.746;2022-10-28T12:23:59;22.10;99.90
13328;DHT22;6733;51.044;3.746;2022-10-28T12:26:53;22.10;99.90
13328;DHT22;6733;51.044;3.746;2022-10-28T12:29:36;22.20;99.90
13328;DHT22;6733;51.044;3.746;2022-10-28T12:32:09;22.40;99.90
13328;DHT22;6733;51.044;3.746;2022-10-28T12:34:46;22.30;99.90
13328;DHT22;6733;51.044;3.746;2022-10-28T12:37:37;22.30;99.90
13328;DHT22;6733;51.044;3.746;2022-10-28T12:40:28;22.20;99.90
13328;DHT22;6733;51.044;3.746;2022-10-28T12:42:59;22.30;99.90
13328;DHT22;6733;51.044;3.746;2022-10-28T12:45:30;22.30;99.90
13328;DHT22;6733;51.044;3.746;2022-10-28T12:48:27;22.20;99.90
13328;DHT22;6733;51.044;3.746;2022-10-28T12:51:06;22.20;99.90
13328;DHT22;6733;51.044;3.746;2022-10-28T12:53:59;22.30;99.90
13328;DHT22;6733;51.044;3.746;2022-10-28T12:56:32;22.30;99.90
13328;DHT22;6733;51.044;3.746;2022-10-28T12:59:17;22.40;99.90
13328;DHT22;6733;51.044;3.746;2022-10-28T13:01:47;22.40;99.90
13328;DHT22;6733;51.044;3.746;2022-10-28T13:04:14;22.60;99.90
13328;DHT22;6733;51.044;3.746;2022-10-28T13:15:29;22.70;99.90
13328;DHT22;6733;51.044;3.746;2022-10-28T13:18:17;22.60;99.90
13328;DHT22;6733;51.044;3.746;2022-10-28T13:47:32;22.60;99.90
13328;DHT22;6733;51.044;3.746;2022-10-28T13:52:38;22.60;99.90
13328;DHT22;6733;51.044;3.746;2022-10-28T13:57:59;22.50;99.90
13328;DHT22;6733;51.044;3.746;2022-10-28T14:02:58;22.50;99.90
13328;DHT22;6733;51.044;3.746;2022-10-28T14:08:42;22.70;99.90
13328;DHT22;6733;51.044;3.746;2022-10-28T14:11:26;22.70;99.90
13328;DHT22;6733;51.044;3.746;2022-10-28T14:14:01;22.80;99.90
13328;DHT22;6733;51.044;3.746;2022-10-28T14:19:03;23.40;99.90
13328;DHT22;6733;51.044;3.746;2022-10-28T14:21:49;23.50;99.90
13328;DHT22;6733;51.044;3.746;2022-10-28T14:24:34;23.80;99.90
13328;DHT22;6733;51.044;3.746;2022-10-28T14:29:43;23.80;99.90
13328;DHT22;6733;51.044;3.746;2022-10-28T14:35:15;23.90;99.90
13328;DHT22;6733;51.044;3.746;2022-10-28T14:40:49;24.20;99.90
13328;DHT22;6733;51.044;3.746;2022-10-28T14:46:10;23.70;99.90
13328;DHT22;6733;51.044;3.746;2022-10-28T14:51:19;23.40;99.90
13328;DHT22;6733;51.044;3.746;2022-10-28T14:53:46;23.10;99.90
13328;DHT22;6733;51.044;3.746;2022-10-28T14:56:24;23.40;99.90
13328;DHT22;6733;51.044;3.746;2022-10-28T14:58:53;23.20;99.90
13328;DHT22;6733;51.044;3.746;2022-10-28T15:01:23;23.20;99.90
13328;DHT22;6733;51.044;3.746;2022-10-28T15:06:39;22.90;99.90
13328;DHT22;6733;51.044;3.746;2022-10-28T15:09:29;22.20;99.90
13328;DHT22;6733;51.044;3.746;2022-10-28T15:12:16;21.90;99.90
13328;DHT22;6733;51.044;3.746;2022-10-28T15:14:50;21.80;99.90
13328;DHT22;6733;51.044;3.746;2022-10-28T15:17:23;21.80;99.90
13328;DHT22;6733;51.044;3.746;2022-10-28T15:19:53;21.60;99.90
13328;DHT22;6733;51.044;3.746;2022-10-28T15:22:24;21.50;99.90
13328;DHT22;6733;51.044;3.746;2022-10-28T15:24:55;21.40;99.90
13328;DHT22;6733;51.044;3.746;2022-10-28T15:27:23;21.30;99.90
13328;DHT22;6733;51.044;3.746;2022-10-28T15:29:50;21.30;99.90
13328;DHT22;6733;51.044;3.746;2022-10-28T15:34:46;21.20;99.90
13328;DHT22;6733;51.044;3.746;2022-10-28T15:37:19;21.20;99.90
13328;DHT22;6733;51.044;3.746;2022-10-28T15:39:48;21.10;99.90
13328;DHT22;6733;51.044;3.746;2022-10-28T15:42:30;21.10;99.90
13328;DHT22;6733;51.044;3.746;2022-10-28T15:45:01;21.00;99.90
13328;DHT22;6733;51.044;3.746;2022-10-28T15:47:30;21.00;99.90
13328;DHT22;6733;51.044;3.746;2022-10-28T15:50:22;21.00;99.90
13328;DHT22;6733;51.044;3.746;2022-10-28T15:52:52;21.00;99.90
13328;DHT22;6733;51.044;3.746;2022-10-28T15:58:37;20.90;99.90
13328;DHT22;6733;51.044;3.746;2022-10-28T16:00:52;20.90;99.90
13328;DHT22;6733;51.044;3.746;2022-10-28T16:03:27;20.80;99.90
13328;DHT22;6733;51.044;3.746;2022-10-28T16:05:56;20.80;99.90
13328;DHT22;6733;51.044;3.746;2022-10-28T16:08:29;20.70;99.90
13328;DHT22;6733;51.044;3.746;2022-10-28T16:11:02;20.70;99.90
13328;DHT22;6733;51.044;3.746;2022-10-28T16:13:35;20.60;99.90
13328;DHT22;6733;51.044;3.746;2022-10-28T16:16:06;20.60;99.90
13328;DHT22;6733;51.044;3.746;2022-10-28T16:18:39;20.50;99.90
13328;DHT22;6733;51.044;3.746;2022-10-28T16:21:07;20.50;99.90
13328;DHT22;6733;51.044;3.746;2022-10-28T16:23:38;20.40;99.90
13328;DHT22;6733;51.044;3.746;2022-10-28T16:26:05;20.30;99.90
13328;DHT22;6733;51.044;3.746;2022-10-28T16:28:31;20.30;99.90
13328;DHT22;6733;51.044;3.746;2022-10-28T16:30:59;20.20;99.90
13328;DHT22;6733;51.044;3.746;2022-10-28T16:33:34;20.20;99.90
13328;DHT22;6733;51.044;3.746;2022-10-28T16:36:02;20.10;99.90
13328;DHT22;6733;51.044;3.746;2022-10-28T16:38:29;20.00;99.90
13328;DHT22;6733;51.044;3.746;2022-10-28T16:41:00;20.00;99.90
13328;DHT22;6733;51.044;3.746;2022-10-28T16:43:28;19.90;99.90
13328;DHT22;6733;51.044;3.746;2022-10-28T16:45:57;19.80;99.90
13328;DHT22;6733;51.044;3.746;2022-10-28T16:48:26;19.80;99.90
13328;DHT22;6733;51.044;3.746;2022-10-28T16:50:56;19.80;99.90
13328;DHT22;6733;51.044;3.746;2022-10-28T16:53:22;19.70;99.90
13328;DHT22;6733;51.044;3.746;2022-10-28T16:55:49;19.60;99.90
13328;DHT22;6733;51.044;3.746;2022-10-28T16:58:15;19.50;99.90
13328;DHT22;6733;51.044;3.746;2022-10-28T17:00:42;19.40;99.90
13328;DHT22;6733;51.044;3.746;2022-10-28T17:03:12;19.30;99.90
13328;DHT22;6733;51.044;3.746;2022-10-28T17:05:42;19.30;99.90
13328;DHT22;6733;51.044;3.746;2022-10-28T17:08:10;19.20;99.90
13328;DHT22;6733;51.044;3.746;2022-10-28T17:10:37;19.20;99.90
13328;DHT22;6733;51.044;3.746;2022-10-28T17:13:12;19.10;99.90
13328;DHT22;6733;51.044;3.746;2022-10-28T17:15:39;19.10;99.90
13328;DHT22;6733;51.044;3.746;2022-10-28T17:18:06;19.00;99.90
13328;DHT22;6733;51.044;3.746;2022-10-28T17:20:33;19.00;99.90
13328;DHT22;6733;51.044;3.746;2022-10-28T17:22:59;19.00;99.90
13328;DHT22;6733;51.044;3.746;2022-10-28T17:25:26;19.00;99.90
13328;DHT22;6733;51.044;3.746;2022-10-28T17:27:53;18.90;99.90
13328;DHT22;6733;51.044;3.746;2022-10-28T17:30:20;18.90;99.90
13328;DHT22;6733;51.044;3.746;2022-10-28T17:32:52;18.90;99.90
13328;DHT22;6733;51.044;3.746;2022-10-28T17:35:20;18.90;99.90
13328;DHT22;6733;51.044;3.746;2022-10-28T17:37:46;18.90;99.90
13328;DHT22;6733;51.044;3.746;2022-10-28T17:40:13;18.80;99.90
13328;DHT22;6733;51.044;3.746;2022-10-28T17:42:39;18.80;99.90
13328;DHT22;6733;51.044;3.746;2022-10-28T17:45:06;18.80;99.90
13328;DHT22;6733;51.044;3.746;2022-10-28T17:47:33;18.70;99.90
13328;DHT22;6733;51.044;3.746;2022-10-28T17:49:59;18.70;99.90
13328;DHT22;6733;51.044;3.746;2022-10-28T17:52:28;18.70;99.90
13328;DHT22;6733;51.044;3.746;2022-10-28T17:54:54;18.60;99.90
13328;DHT22;6733;51.044;3.746;2022-10-28T17:57:20;18.50;99.90
13328;DHT22;6733;51.044;3.746;2022-10-28T17:59:47;18.50;99.90
13328;DHT22;6733;51.044;3.746;2022-10-28T18:02:13;18.50;99.90
13328;DHT22;6733;51.044;3.746;2022-10-28T18:04:42;18.40;99.90
13328;DHT22;6733;51.044;3.746;2022-10-28T18:07:08;18.40;99.90
13328;DHT22;6733;51.044;3.746;2022-10-28T18:09:34;18.40;99.90
13328;DHT22;6733;51.044;3.746;2022-10-28T18:12:01;18.30;99.90
13328;DHT22;6733;51.044;3.746;2022-10-28T18:14:28;18.30;99.90
13328;DHT22;6733;51.044;3.746;2022-10-28T18:16:54;18.30;99.90
13328;DHT22;6733;51.044;3.746;2022-10-28T18:19:20;18.30;99.90
13328;DHT22;6733;51.044;3.746;2022-10-28T18:21:46;18.20;99.90
13328;DHT22;6733;51.044;3.746;2022-10-28T18:24:13;18.20;99.90
13328;DHT22;6733;51.044;3.746;2022-10-28T18:26:39;18.20;99.90
13328;DHT22;6733;51.044;3.746;2022-10-28T18:29:07;18.10;99.90
13328;DHT22;6733;51.044;3.746;2022-10-28T18:31:36;18.00;99.90
13328;DHT22;6733;51.044;3.746;2022-10-28T18:34:03;18.30;99.90
13328;DHT22;6733;51.044;3.746;2022-10-28T18:36:31;18.20;99.90
13328;DHT22;6733;51.044;3.746;2022-10-28T18:39:05;18.10;99.90
13328;DHT22;6733;51.044;3.746;2022-10-28T18:41:33;18.00;99.90
13328;DHT22;6733;51.044;3.746;2022-10-28T18:44:01;17.90;99.90
13328;DHT22;6733;51.044;3.746;2022-10-28T18:46:28;17.90;99.90
13328;DHT22;6733;51.044;3.746;2022-10-28T18:48:56;17.90;99.90
13328;DHT22;6733;51.044;3.746;2022-10-28T18:51:23;17.90;99.90
13328;DHT22;6733;51.044;3.746;2022-10-28T18:53:49;17.90;99.90
13328;DHT22;6733;51.044;3.746;2022-10-28T18:56:18;17.80;99.90
13328;DHT22;6733;51.044;3.746;2022-10-28T18:58:45;17.80;99.90
13328;DHT22;6733;51.044;3.746;2022-10-28T19:01:16;17.80;99.90
13328;DHT22;6733;51.044;3.746;2022-10-28T19:03:43;17.70;99.90
13328;DHT22;6733;51.044;3.746;2022-10-28T19:06:14;17.70;99.90
13328;DHT22;6733;51.044;3.746;2022-10-28T19:08:42;17.70;99.90
13328;DHT22;6733;51.044;3.746;2022-10-28T19:11:12;17.60;99.90
13328;DHT22;6733;51.044;3.746;2022-10-28T19:13:40;17.60;99.90
13328;DHT22;6733;51.044;3.746;2022-10-28T19:16:07;17.50;99.90
13328;DHT22;6733;51.044;3.746;2022-10-28T19:18:34;17.50;99.90
13328;DHT22;6733;51.044;3.746;2022-10-28T19:21:03;17.50;99.90
13328;DHT22;6733;51.044;3.746;2022-10-28T19:23:33;17.40;99.90
13328;DHT22;6733;51.044;3.746;2022-10-28T19:25:59;17.40;99.90